Time,TemperatureF,DewpointF,PressureIn,WindDirection,WindDirectionDegrees,WindSpeedMPH,WindSpeedGustMPH,Humidity,HourlyPrecipIn,Conditions,Clouds,dailyrainin,SoftwareType,DateUTC
2013-09-17 00:12:00,56.0,54.0,30.06,SE,131,1.0,5.0,93,0.00,,,0.01,,2013-09-17 05:12:00,
2013-09-17 00:23:00,55.0,53.0,30.06,SE,128,2.0,8.0,94,0.00,,,0.01,,2013-09-17 05:23:00,
2013-09-17 00:42:00,55.0,54.0,30.06,SW,234,1.0,8.0,95,0.00,,,0.01,,2013-09-17 05:42:00,
2013-09-17 00:52:00,56.0,55.0,30.06,SE,127,1.0,7.0,95,0.00,,,0.01,,2013-09-17 05:52:00,
2013-09-17 01:12:00,56.0,55.0,30.05,SSE,156,2.0,6.0,95,0.00,,,0.01,,2013-09-17 06:12:00,
2013-09-17 01:22:00,56.0,55.0,30.05,SE,130,4.0,8.0,95,0.00,,,0.01,,2013-09-17 06:22:00,
2013-09-17 01:42:00,56.0,55.0,30.04,SE,138,3.0,8.0,95,0.00,,,0.01,,2013-09-17 06:42:00,
2013-09-17 01:52:00,56.0,55.0,30.04,SE,134,1.0,6.0,95,0.00,,,0.01,,2013-09-17 06:52:00,
2013-09-17 02:11:00,56.0,55.0,30.04,SSE,160,0.0,3.0,95,0.00,,,0.01,,2013-09-17 07:11:00,
2013-09-17 02:23:00,56.0,55.0,30.04,SSE,153,1.0,6.0,95,0.00,,,0.01,,2013-09-17 07:23:00,
2013-09-17 02:42:00,56.0,54.0,30.04,SSE,168,3.0,8.0,94,0.00,,,0.01,,2013-09-17 07:42:00,
2013-09-17 02:52:00,56.0,55.0,30.02,SE,136,3.0,7.0,95,0.00,,,0.01,,2013-09-17 07:52:00,
2013-09-17 03:12:00,56.0,55.0,30.02,South,191,1.0,6.0,95,0.00,,,0.01,,2013-09-17 08:12:00,
2013-09-17 03:22:00,56.0,55.0,30.02,East,94,1.0,7.0,95,0.00,,,0.01,,2013-09-17 08:22:00,
2013-09-17 03:42:00,56.0,55.0,30.01,SE,144,3.0,9.0,95,0.00,,,0.01,,2013-09-17 08:42:00,
2013-09-17 03:52:00,56.0,55.0,30.01,SE,132,1.0,5.0,96,0.00,,,0.01,,2013-09-17 08:52:00,
2013-09-17 04:12:00,56.0,55.0,30.00,South,182,1.0,6.0,96,0.00,,,0.01,,2013-09-17 09:12:00,
2013-09-17 04:22:00,56.0,55.0,29.99,SE,142,3.0,8.0,96,0.00,,,0.01,,2013-09-17 09:22:00,
2013-09-17 04:42:00,56.0,55.0,29.98,SSE,150,3.0,9.0,96,0.00,,,0.01,,2013-09-17 09:42:00,
2013-09-17 04:53:00,56.0,55.0,29.98,SE,134,2.0,7.0,96,0.00,,,0.01,,2013-09-17 09:53:00,
2013-09-17 05:12:00,57.0,56.0,29.97,ESE,123,2.0,7.0,96,0.00,,,0.01,,2013-09-17 10:12:00,
2013-09-17 05:23:00,57.0,56.0,29.96,SE,131,3.0,6.0,96,0.00,,,0.01,,2013-09-17 10:23:00,
2013-09-17 05:42:00,57.0,56.0,29.96,SE,133,3.0,7.0,96,0.00,,,0.01,,2013-09-17 10:42:00,
2013-09-17 05:53:00,57.0,56.0,29.96,SE,128,2.0,7.0,96,0.00,,,0.01,,2013-09-17 10:53:00,
2013-09-17 06:11:00,57.0,56.0,29.95,SE,128,3.0,11.0,96,0.00,,,0.01,,2013-09-17 11:11:00,
2013-09-17 06:22:00,57.0,56.0,29.94,SE,135,4.0,9.0,96,0.00,,,0.01,,2013-09-17 11:22:00,
2013-09-17 06:52:00,57.0,56.0,29.94,SE,144,4.0,10.0,95,0.00,,,0.01,,2013-09-17 11:52:00,
2013-09-17 07:12:00,57.0,56.0,29.94,SE,130,4.0,9.0,96,0.00,,,0.01,,2013-09-17 12:12:00,
2013-09-17 07:22:00,57.0,56.0,29.94,SSE,166,2.0,8.0,96,0.00,,,0.00,,2013-09-17 12:22:00,
2013-09-17 07:42:00,57.0,56.0,29.93,ESE,117,4.0,10.0,96,0.00,,,0.00,,2013-09-17 12:42:00,
2013-09-17 07:52:00,58.0,57.0,29.93,SE,140,4.0,9.0,96,0.00,,,0.00,,2013-09-17 12:52:00,
2013-09-17 08:11:00,58.0,57.0,29.93,SE,128,4.0,11.0,96,0.00,,,0.00,,2013-09-17 13:11:00,
2013-09-17 08:22:00,58.0,57.0,29.93,SE,143,4.0,14.0,96,0.00,,,0.00,,2013-09-17 13:22:00,
2013-09-17 08:42:00,58.0,57.0,29.92,SE,142,5.0,10.0,96,0.00,,,0.00,,2013-09-17 13:42:00,
2013-09-17 08:52:00,58.0,57.0,29.92,SE,125,2.0,12.0,96,0.00,,,0.00,,2013-09-17 13:52:00,
2013-09-17 09:11:00,58.0,57.0,29.92,SSE,153,3.0,10.0,96,0.00,,,0.00,,2013-09-17 14:11:00,
2013-09-17 09:22:00,58.0,57.0,29.92,ESE,118,3.0,10.0,96,0.00,,,0.00,,2013-09-17 14:22:00,
2013-09-17 09:52:00,59.0,58.0,29.91,ESE,112,4.0,10.0,95,0.00,,,0.00,,2013-09-17 14:52:00,
2013-09-17 10:11:00,60.0,59.0,29.91,ESE,119,5.0,11.0,95,0.00,,,0.00,,2013-09-17 15:11:00,
2013-09-17 10:22:00,60.0,59.0,29.90,SE,135,5.0,12.0,95,0.00,,,0.00,,2013-09-17 15:22:00,
2013-09-17 10:44:00,61.0,59.0,29.91,ESE,121,6.0,13.0,94,0.00,,,0.00,,2013-09-17 15:44:00,
2013-09-17 10:53:00,61.0,59.0,29.90,ESE,123,3.0,12.0,94,0.00,,,0.00,,2013-09-17 15:53:00,
2013-09-17 11:13:00,61.0,59.0,29.90,SE,134,4.0,11.0,94,0.00,,,0.00,,2013-09-17 16:13:00,
2013-09-17 11:23:00,61.0,59.0,29.89,ESE,123,5.0,13.0,94,0.00,,,0.00,,2013-09-17 16:23:00,
2013-09-17 11:54:00,62.0,60.0,29.88,SE,142,4.0,10.0,94,0.00,,,0.00,,2013-09-17 16:54:00,
2013-09-17 12:12:00,62.0,60.0,29.88,ESE,122,4.0,10.0,94,0.00,,,0.00,,2013-09-17 17:12:00,
2013-09-17 12:23:00,62.0,60.0,29.88,ESE,122,4.0,10.0,94,0.00,,,0.00,,2013-09-17 17:23:00,
2013-09-17 12:43:00,63.0,61.0,29.86,SE,142,3.0,9.0,93,0.00,,,0.00,,2013-09-17 17:43:00,
2013-09-17 12:53:00,64.0,62.0,29.86,SE,126,4.0,11.0,92,0.00,,,0.00,,2013-09-17 17:53:00,
2013-09-17 13:12:00,64.0,62.0,29.85,SE,142,2.0,8.0,92,0.00,,,0.00,,2013-09-17 18:12:00,
2013-09-17 13:22:00,65.0,62.0,29.85,SE,137,3.0,10.0,91,0.00,,,0.00,,2013-09-17 18:22:00,
2013-09-17 13:42:00,65.0,62.0,29.84,SSE,150,5.0,11.0,91,0.00,,,0.00,,2013-09-17 18:42:00,
2013-09-17 13:52:00,65.0,62.0,29.83,SE,129,2.0,13.0,91,0.00,,,0.00,,2013-09-17 18:52:00,
2013-09-17 14:12:00,66.0,63.0,29.83,SE,144,1.0,9.0,90,0.00,,,0.00,,2013-09-17 19:12:00,
2013-09-17 14:22:00,66.0,63.0,29.82,SE,136,2.0,9.0,90,0.00,,,0.00,,2013-09-17 19:22:00,
2013-09-17 14:52:00,68.0,64.0,29.80,WSW,242,2.0,9.0,87,0.00,,,0.00,,2013-09-17 19:52:00,
2013-09-17 15:11:00,69.0,64.0,29.79,SW,229,3.0,10.0,85,0.00,,,0.00,,2013-09-17 20:11:00,
2013-09-17 15:22:00,70.0,65.0,29.79,SE,126,2.0,8.0,83,0.00,,,0.00,,2013-09-17 20:22:00,
2013-09-17 15:52:00,74.0,66.0,29.76,SSW,209,3.0,9.0,76,0.00,,,0.00,,2013-09-17 20:52:00,
2013-09-17 16:12:00,76.0,66.0,29.75,SSW,212,2.0,12.0,72,0.00,,,0.00,,2013-09-17 21:12:00,
2013-09-17 16:22:00,77.0,66.0,29.74,SSE,159,5.0,13.0,70,0.00,,,0.00,,2013-09-17 21:22:00,
2013-09-17 16:54:00,79.0,66.0,29.72,SE,136,6.0,12.0,64,0.00,,,0.00,,2013-09-17 21:54:00,
2013-09-17 17:13:00,80.0,66.0,29.72,SW,227,5.0,12.0,63,0.00,,,0.00,,2013-09-17 22:13:00,
2013-09-17 17:24:00,81.0,66.0,29.71,SE,133,3.0,7.0,61,0.00,,,0.00,,2013-09-17 22:24:00,
2013-09-17 17:53:00,83.0,68.0,29.70,SSE,155,2.0,11.0,60,0.00,,,0.00,,2013-09-17 22:53:00,
2013-09-17 18:12:00,83.0,67.0,29.69,South,185,2.0,12.0,58,0.00,,,0.00,,2013-09-17 23:12:00,
2013-09-17 18:22:00,83.0,66.0,29.68,SSE,155,2.0,14.0,56,0.00,,,0.00,,2013-09-17 23:22:00,
2013-09-17 18:52:00,83.0,66.0,29.68,SE,136,3.0,10.0,56,0.00,,,0.00,,2013-09-17 23:52:00,
2013-09-17 19:11:00,83.0,66.0,29.67,SSE,160,4.0,10.0,56,0.00,,,0.00,,2013-09-18 00:11:00,
2013-09-17 19:22:00,83.0,66.0,29.67,East,83,2.0,10.0,57,0.00,,,0.00,,2013-09-18 00:22:00,
2013-09-17 19:42:00,82.0,66.0,29.67,SE,131,4.0,11.0,58,0.00,,,0.00,,2013-09-18 00:42:00,
2013-09-17 19:52:00,82.0,66.0,29.67,SE,133,5.0,10.0,58,0.00,,,0.00,,2013-09-18 00:52:00,
2013-09-17 20:11:00,81.0,66.0,29.67,SE,125,3.0,7.0,60,0.00,,,0.00,,2013-09-18 01:11:00,
2013-09-17 20:22:00,80.0,65.0,29.66,SE,131,2.0,5.0,61,0.00,,,0.00,,2013-09-18 01:22:00,
2013-09-17 20:42:00,79.0,65.0,29.66,SE,131,1.0,4.0,62,0.00,,,0.00,,2013-09-18 01:42:00,
2013-09-17 20:52:00,78.0,65.0,29.66,SE,128,0.0,2.0,65,0.00,,,0.00,,2013-09-18 01:52:00,
2013-09-17 21:11:00,76.0,65.0,29.67,SE,134,0.0,3.0,68,0.00,,,0.00,,2013-09-18 02:11:00,
2013-09-17 21:22:00,75.0,65.0,29.67,SE,134,0.0,1.0,71,0.00,,,0.00,,2013-09-18 02:22:00,
2013-09-17 21:43:00,74.0,66.0,29.67,SE,134,0.0,0.0,75,0.00,,,0.00,,2013-09-18 02:43:00,
2013-09-17 21:52:00,73.0,65.0,29.67,SE,134,0.0,2.0,77,0.00,,,0.00,,2013-09-18 02:52:00,
2013-09-17 22:12:00,72.0,65.0,29.67,SE,134,0.0,1.0,80,0.00,,,0.00,,2013-09-18 03:12:00,
2013-09-17 22:23:00,71.0,65.0,29.67,SE,134,0.0,1.0,81,0.00,,,0.00,,2013-09-18 03:23:00,
2013-09-17 22:44:00,70.0,65.0,29.67,SE,134,0.0,1.0,83,0.00,,,0.00,,2013-09-18 03:44:00,
2013-09-17 22:54:00,70.0,65.0,29.67,SE,134,0.0,3.0,85,0.00,,,0.00,,2013-09-18 03:54:00,
2013-09-17 23:14:00,70.0,65.0,29.66,SE,134,0.0,1.0,85,0.00,,,0.00,,2013-09-18 04:14:00,
2013-09-17 23:24:00,70.0,65.0,29.66,SE,134,0.0,3.0,84,0.00,,,0.00,,2013-09-18 04:24:00,
2013-09-17 23:44:00,72.0,65.0,29.66,ESE,121,3.0,5.0,80,0.00,,,0.00,,2013-09-18 04:44:00,
2013-09-17 23:54:00,74.0,66.0,29.65,SE,128,3.0,7.0,76,0.00,,,0.00,,2013-09-18 04:54:00,